Wind Cave, Kentucky
Current Conditions -  °F | °C
As of 11:15 AM on Monday 24 Nov 2014 (Local Time) from KI39 Reporting Station
Overcast Overcast  
Wind Chill: 64°   Ceiling: 6000
Heat Index: 64°   Visibility: 10mi
Dew Point: 45°   Wind: 32mph
Humidity: 49%   Direction: 240°WSW
Pressure: 29.57"   Gusts: 41mph
Location:  37.4446°N, 84.0227°W
Report Text: KI39 241615Z AUTO 24028G36KT 10SM BKN060 OVC070 18/07 A2957 RMK AO2
Loading
Personal Weather Stations






























Interactive Weather Map New forecast layout! Learn more

10-Day Weather Forecast

Advertisements
Track Severe Weather on mobile